sensor_id;sensor_type;location;lat;lon;timestamp;temperature;humidity
1137;DHT22;557;48.466;7.950;2024-03-08T00:00:31;2.00;99.90
1137;DHT22;557;48.466;7.950;2024-03-08T00:02:59;2.00;99.90
1137;DHT22;557;48.466;7.950;2024-03-08T00:05:27;1.90;99.90
1137;DHT22;557;48.466;7.950;2024-03-08T00:07:54;2.00;99.90
1137;DHT22;557;48.466;7.950;2024-03-08T00:10:21;2.00;99.90
1137;DHT22;557;48.466;7.950;2024-03-08T00:12:48;2.00;99.90
1137;DHT22;557;48.466;7.950;2024-03-08T00:15:18;2.00;99.90
1137;DHT22;557;48.466;7.950;2024-03-08T00:17:45;2.00;99.90
1137;DHT22;557;48.466;7.950;2024-03-08T00:20:12;2.10;99.90
1137;DHT22;557;48.466;7.950;2024-03-08T00:22:39;2.10;99.90
1137;DHT22;557;48.466;7.950;2024-03-08T00:25:07;2.10;99.90
1137;DHT22;557;48.466;7.950;2024-03-08T00:27:35;2.00;99.90
1137;DHT22;557;48.466;7.950;2024-03-08T00:30:03;2.00;99.90
1137;DHT22;557;48.466;7.950;2024-03-08T00:32:31;2.10;99.90
1137;DHT22;557;48.466;7.950;2024-03-08T00:34:58;2.00;99.90
1137;DHT22;557;48.466;7.950;2024-03-08T00:37:25;2.00;99.90
1137;DHT22;557;48.466;7.950;2024-03-08T00:39:52;2.10;99.90
1137;DHT22;557;48.466;7.950;2024-03-08T00:42:20;2.10;99.90
1137;DHT22;557;48.466;7.950;2024-03-08T00:44:47;2.10;99.90
1137;DHT22;557;48.466;7.950;2024-03-08T00:47:16;2.10;99.90
1137;DHT22;557;48.466;7.950;2024-03-08T00:49:44;2.00;99.90
1137;DHT22;557;48.466;7.950;2024-03-08T00:52:12;2.00;99.90
1137;DHT22;557;48.466;7.950;2024-03-08T00:54:38;2.00;99.90
1137;DHT22;557;48.466;7.950;2024-03-08T00:57:06;2.10;99.90
1137;DHT22;557;48.466;7.950;2024-03-08T00:59:33;2.10;99.90
1137;DHT22;557;48.466;7.950;2024-03-08T01:02:00;2.10;99.90
1137;DHT22;557;48.466;7.950;2024-03-08T01:04:27;2.20;99.90
1137;DHT22;557;48.466;7.950;2024-03-08T01:06:56;2.20;99.90
1137;DHT22;557;48.466;7.950;2024-03-08T01:09:23;2.20;99.90
1137;DHT22;557;48.466;7.950;2024-03-08T01:11:50;2.30;99.90
1137;DHT22;557;48.466;7.950;2024-03-08T01:14:20;2.30;99.90
1137;DHT22;557;48.466;7.950;2024-03-08T01:16:47;2.40;99.90
1137;DHT22;557;48.466;7.950;2024-03-08T01:19:14;2.50;99.90
1137;DHT22;557;48.466;7.950;2024-03-08T01:21:41;2.50;99.90
1137;DHT22;557;48.466;7.950;2024-03-08T01:24:10;2.50;99.90
1137;DHT22;557;48.466;7.950;2024-03-08T01:26:36;2.50;99.90
1137;DHT22;557;48.466;7.950;2024-03-08T01:29:04;2.50;99.90
1137;DHT22;557;48.466;7.950;2024-03-08T01:31:31;2.60;99.90
1137;DHT22;557;48.466;7.950;2024-03-08T01:33:58;2.50;99.90
1137;DHT22;557;48.466;7.950;2024-03-08T01:36:25;2.60;99.90
1137;DHT22;557;48.466;7.950;2024-03-08T01:38:52;2.60;99.90
1137;DHT22;557;48.466;7.950;2024-03-08T01:41:20;2.50;99.90
1137;DHT22;557;48.466;7.950;2024-03-08T01:43:47;2.40;99.90
1137;DHT22;557;48.466;7.950;2024-03-08T01:46:17;2.40;99.90
1137;DHT22;557;48.466;7.950;2024-03-08T01:48:45;2.30;99.90
1137;DHT22;557;48.466;7.950;2024-03-08T01:51:12;2.20;99.90
1137;DHT22;557;48.466;7.950;2024-03-08T01:53:40;2.10;99.90
1137;DHT22;557;48.466;7.950;2024-03-08T01:56:11;2.10;99.90
1137;DHT22;557;48.466;7.950;2024-03-08T01:58:41;2.10;99.90
1137;DHT22;557;48.466;7.950;2024-03-08T02:01:11;2.10;99.90
1137;DHT22;557;48.466;7.950;2024-03-08T02:03:37;2.00;99.90
1137;DHT22;557;48.466;7.950;2024-03-08T02:06:04;2.00;99.90
1137;DHT22;557;48.466;7.950;2024-03-08T02:08:35;2.00;99.90
1137;DHT22;557;48.466;7.950;2024-03-08T02:11:02;2.00;99.90
1137;DHT22;557;48.466;7.950;2024-03-08T02:13:30;2.00;99.90
1137;DHT22;557;48.466;7.950;2024-03-08T02:15:59;2.00;99.90
1137;DHT22;557;48.466;7.950;2024-03-08T02:18:27;2.00;99.90
1137;DHT22;557;48.466;7.950;2024-03-08T02:20:56;2.10;99.90
1137;DHT22;557;48.466;7.950;2024-03-08T02:23:23;2.00;99.90
1137;DHT22;557;48.466;7.950;2024-03-08T02:25:51;2.00;99.90
1137;DHT22;557;48.466;7.950;2024-03-08T02:28:19;2.00;99.90
1137;DHT22;557;48.466;7.950;2024-03-08T02:30:47;2.00;99.90
1137;DHT22;557;48.466;7.950;2024-03-08T02:33:14;1.90;99.90
1137;DHT22;557;48.466;7.950;2024-03-08T02:35:43;1.90;99.90
1137;DHT22;557;48.466;7.950;2024-03-08T02:38:12;2.00;99.90
1137;DHT22;557;48.466;7.950;2024-03-08T02:40:41;2.10;99.90
1137;DHT22;557;48.466;7.950;2024-03-08T02:43:08;2.20;99.90
1137;DHT22;557;48.466;7.950;2024-03-08T02:45:35;2.40;99.90
1137;DHT22;557;48.466;7.950;2024-03-08T02:48:02;2.60;99.90
1137;DHT22;557;48.466;7.950;2024-03-08T02:50:29;2.70;99.90
1137;DHT22;557;48.466;7.950;2024-03-08T02:52:56;2.80;99.90
1137;DHT22;557;48.466;7.950;2024-03-08T02:55:24;3.00;99.90
1137;DHT22;557;48.466;7.950;2024-03-08T02:57:54;3.00;99.90
1137;DHT22;557;48.466;7.950;2024-03-08T03:00:21;3.00;99.90
1137;DHT22;557;48.466;7.950;2024-03-08T03:02:50;3.10;99.90
1137;DHT22;557;48.466;7.950;2024-03-08T03:05:19;3.10;99.90
1137;DHT22;557;48.466;7.950;2024-03-08T03:07:46;3.20;99.90
1137;DHT22;557;48.466;7.950;2024-03-08T03:10:14;3.20;99.90
1137;DHT22;557;48.466;7.950;2024-03-08T03:12:44;3.10;99.90
1137;DHT22;557;48.466;7.950;2024-03-08T03:15:11;3.30;99.90
1137;DHT22;557;48.466;7.950;2024-03-08T03:17:38;3.20;99.90
1137;DHT22;557;48.466;7.950;2024-03-08T03:20:06;3.10;99.90
1137;DHT22;557;48.466;7.950;2024-03-08T03:22:38;3.10;99.90
1137;DHT22;557;48.466;7.950;2024-03-08T03:25:07;3.10;99.90
1137;DHT22;557;48.466;7.950;2024-03-08T03:27:35;3.00;99.90
1137;DHT22;557;48.466;7.950;2024-03-08T03:30:05;2.90;99.90
1137;DHT22;557;48.466;7.950;2024-03-08T03:32:46;2.70;99.90
1137;DHT22;557;48.466;7.950;2024-03-08T03:35:14;2.70;99.90
1137;DHT22;557;48.466;7.950;2024-03-08T03:37:41;2.60;99.90
1137;DHT22;557;48.466;7.950;2024-03-08T03:40:12;2.50;99.90
1137;DHT22;557;48.466;7.950;2024-03-08T03:42:39;2.50;99.90
1137;DHT22;557;48.466;7.950;2024-03-08T03:45:08;2.40;99.90
1137;DHT22;557;48.466;7.950;2024-03-08T03:47:36;2.40;99.90
1137;DHT22;557;48.466;7.950;2024-03-08T03:50:04;2.40;99.90
1137;DHT22;557;48.466;7.950;2024-03-08T03:52:31;2.60;99.90
1137;DHT22;557;48.466;7.950;2024-03-08T03:54:58;2.70;99.90
1137;DHT22;557;48.466;7.950;2024-03-08T03:57:25;2.90;99.90
1137;DHT22;557;48.466;7.950;2024-03-08T03:59:52;3.10;99.90
1137;DHT22;557;48.466;7.950;2024-03-08T04:02:20;3.20;99.90
1137;DHT22;557;48.466;7.950;2024-03-08T04:04:47;3.30;99.90
1137;DHT22;557;48.466;7.950;2024-03-08T04:07:14;3.30;99.90
1137;DHT22;557;48.466;7.950;2024-03-08T04:09:42;3.40;99.90
1137;DHT22;557;48.466;7.950;2024-03-08T04:12:09;3.40;99.90
1137;DHT22;557;48.466;7.950;2024-03-08T04:14:36;3.40;99.90
1137;DHT22;557;48.466;7.950;2024-03-08T04:17:03;3.20;99.90
1137;DHT22;557;48.466;7.950;2024-03-08T04:19:33;3.10;99.90
1137;DHT22;557;48.466;7.950;2024-03-08T04:22:00;2.90;99.90
1137;DHT22;557;48.466;7.950;2024-03-08T04:24:26;2.90;99.90
1137;DHT22;557;48.466;7.950;2024-03-08T04:26:53;2.90;99.90
1137;DHT22;557;48.466;7.950;2024-03-08T04:29:20;3.00;99.90
1137;DHT22;557;48.466;7.950;2024-03-08T04:31:47;3.10;99.90
1137;DHT22;557;48.466;7.950;2024-03-08T04:34:14;3.10;99.90
1137;DHT22;557;48.466;7.950;2024-03-08T04:36:42;3.10;99.90
1137;DHT22;557;48.466;7.950;2024-03-08T04:39:09;3.10;99.90
1137;DHT22;557;48.466;7.950;2024-03-08T04:41:38;2.90;99.90
1137;DHT22;557;48.466;7.950;2024-03-08T04:44:06;2.80;99.90
1137;DHT22;557;48.466;7.950;2024-03-08T04:46:33;2.70;99.90
1137;DHT22;557;48.466;7.950;2024-03-08T04:49:01;2.70;99.90
1137;DHT22;557;48.466;7.950;2024-03-08T04:51:27;2.70;99.90
1137;DHT22;557;48.466;7.950;2024-03-08T04:53:56;2.70;99.90
1137;DHT22;557;48.466;7.950;2024-03-08T04:56:23;2.70;99.90
1137;DHT22;557;48.466;7.950;2024-03-08T04:58:51;2.70;99.90
1137;DHT22;557;48.466;7.950;2024-03-08T05:01:18;2.70;99.90
1137;DHT22;557;48.466;7.950;2024-03-08T05:03:45;2.60;99.90
1137;DHT22;557;48.466;7.950;2024-03-08T05:06:15;2.80;99.90
1137;DHT22;557;48.466;7.950;2024-03-08T05:08:42;2.80;99.90
1137;DHT22;557;48.466;7.950;2024-03-08T05:11:10;2.90;99.90
1137;DHT22;557;48.466;7.950;2024-03-08T05:13:39;2.90;99.90
1137;DHT22;557;48.466;7.950;2024-03-08T05:16:06;3.00;99.90
1137;DHT22;557;48.466;7.950;2024-03-08T05:18:34;3.10;99.90
1137;DHT22;557;48.466;7.950;2024-03-08T05:21:01;3.20;99.90
1137;DHT22;557;48.466;7.950;2024-03-08T05:23:29;3.20;99.90
1137;DHT22;557;48.466;7.950;2024-03-08T05:25:56;3.10;99.90
1137;DHT22;557;48.466;7.950;2024-03-08T05:28:25;3.10;99.90
1137;DHT22;557;48.466;7.950;2024-03-08T05:30:52;3.10;99.90
1137;DHT22;557;48.466;7.950;2024-03-08T05:33:21;3.10;99.90
1137;DHT22;557;48.466;7.950;2024-03-08T05:35:50;3.20;99.90
1137;DHT22;557;48.466;7.950;2024-03-08T05:38:17;3.20;99.90
1137;DHT22;557;48.466;7.950;2024-03-08T05:40:45;3.40;99.90
1137;DHT22;557;48.466;7.950;2024-03-08T05:43:12;3.40;99.90
1137;DHT22;557;48.466;7.950;2024-03-08T05:45:43;3.50;99.90
1137;DHT22;557;48.466;7.950;2024-03-08T05:48:10;3.50;99.90
1137;DHT22;557;48.466;7.950;2024-03-08T05:50:38;3.50;99.90
1137;DHT22;557;48.466;7.950;2024-03-08T05:53:05;3.40;99.90
1137;DHT22;557;48.466;7.950;2024-03-08T05:55:32;3.30;99.90
1137;DHT22;557;48.466;7.950;2024-03-08T05:58:00;3.10;99.90
1137;DHT22;557;48.466;7.950;2024-03-08T06:00:27;2.90;99.90
1137;DHT22;557;48.466;7.950;2024-03-08T06:02:55;2.70;99.90
1137;DHT22;557;48.466;7.950;2024-03-08T06:05:22;2.60;99.90
1137;DHT22;557;48.466;7.950;2024-03-08T06:07:50;2.60;99.90
1137;DHT22;557;48.466;7.950;2024-03-08T06:10:19;2.60;99.90
1137;DHT22;557;48.466;7.950;2024-03-08T06:12:47;2.50;99.90
1137;DHT22;557;48.466;7.950;2024-03-08T06:15:14;2.50;99.90
1137;DHT22;557;48.466;7.950;2024-03-08T06:17:41;2.50;99.90
1137;DHT22;557;48.466;7.950;2024-03-08T06:20:10;2.40;99.90
1137;DHT22;557;48.466;7.950;2024-03-08T06:22:38;2.40;99.90
1137;DHT22;557;48.466;7.950;2024-03-08T06:25:07;2.30;99.90
1137;DHT22;557;48.466;7.950;2024-03-08T06:27:33;2.30;99.90
1137;DHT22;557;48.466;7.950;2024-03-08T06:30:00;2.20;99.90
1137;DHT22;557;48.466;7.950;2024-03-08T06:32:30;2.20;99.90
1137;DHT22;557;48.466;7.950;2024-03-08T06:34:58;2.20;99.90
1137;DHT22;557;48.466;7.950;2024-03-08T06:37:26;2.20;99.90
1137;DHT22;557;48.466;7.950;2024-03-08T06:39:53;2.30;99.90
1137;DHT22;557;48.466;7.950;2024-03-08T06:42:20;2.30;99.90
1137;DHT22;557;48.466;7.950;2024-03-08T06:44:47;2.40;99.90
1137;DHT22;557;48.466;7.950;2024-03-08T06:47:15;2.40;99.90
1137;DHT22;557;48.466;7.950;2024-03-08T06:49:42;2.50;99.90
1137;DHT22;557;48.466;7.950;2024-03-08T06:52:09;2.50;99.90
1137;DHT22;557;48.466;7.950;2024-03-08T06:54:37;2.60;99.90
1137;DHT22;557;48.466;7.950;2024-03-08T06:57:06;2.60;99.90
1137;DHT22;557;48.466;7.950;2024-03-08T06:59:32;2.70;99.90
1137;DHT22;557;48.466;7.950;2024-03-08T07:02:01;2.80;99.90
1137;DHT22;557;48.466;7.950;2024-03-08T07:04:28;2.80;99.90
1137;DHT22;557;48.466;7.950;2024-03-08T07:06:55;2.90;99.90
1137;DHT22;557;48.466;7.950;2024-03-08T07:09:23;3.00;99.90
1137;DHT22;557;48.466;7.950;2024-03-08T07:11:51;3.00;99.90
1137;DHT22;557;48.466;7.950;2024-03-08T07:14:21;3.10;99.90
1137;DHT22;557;48.466;7.950;2024-03-08T07:16:48;3.20;99.90
1137;DHT22;557;48.466;7.950;2024-03-08T07:19:15;3.20;99.90
1137;DHT22;557;48.466;7.950;2024-03-08T07:21:42;3.30;99.90
1137;DHT22;557;48.466;7.950;2024-03-08T07:24:09;3.30;99.90
1137;DHT22;557;48.466;7.950;2024-03-08T07:26:54;3.40;99.90
1137;DHT22;557;48.466;7.950;2024-03-08T07:29:21;3.50;99.90
1137;DHT22;557;48.466;7.950;2024-03-08T07:31:48;3.50;99.90
1137;DHT22;557;48.466;7.950;2024-03-08T07:34:26;3.60;99.90
1137;DHT22;557;48.466;7.950;2024-03-08T07:36:55;3.70;99.90
1137;DHT22;557;48.466;7.950;2024-03-08T07:39:22;3.80;99.90
1137;DHT22;557;48.466;7.950;2024-03-08T07:41:49;3.90;99.90
1137;DHT22;557;48.466;7.950;2024-03-08T07:44:19;4.10;99.90
1137;DHT22;557;48.466;7.950;2024-03-08T07:46:46;4.20;99.90
1137;DHT22;557;48.466;7.950;2024-03-08T07:49:13;4.30;99.90
1137;DHT22;557;48.466;7.950;2024-03-08T07:51:40;4.30;99.90
1137;DHT22;557;48.466;7.950;2024-03-08T07:54:07;4.40;99.90
1137;DHT22;557;48.466;7.950;2024-03-08T07:56:36;4.50;99.90
1137;DHT22;557;48.466;7.950;2024-03-08T07:59:03;4.60;99.90
1137;DHT22;557;48.466;7.950;2024-03-08T08:01:32;4.70;99.90
1137;DHT22;557;48.466;7.950;2024-03-08T08:03:59;4.80;99.90
1137;DHT22;557;48.466;7.950;2024-03-08T08:06:26;4.90;99.90
1137;DHT22;557;48.466;7.950;2024-03-08T08:08:53;5.00;99.90
1137;DHT22;557;48.466;7.950;2024-03-08T08:11:21;5.10;99.90
1137;DHT22;557;48.466;7.950;2024-03-08T08:13:48;5.20;99.90
1137;DHT22;557;48.466;7.950;2024-03-08T08:16:15;5.30;99.90
1137;DHT22;557;48.466;7.950;2024-03-08T08:18:43;5.40;99.90
1137;DHT22;557;48.466;7.950;2024-03-08T08:21:11;5.50;99.90
1137;DHT22;557;48.466;7.950;2024-03-08T08:23:38;5.60;99.90
1137;DHT22;557;48.466;7.950;2024-03-08T08:26:05;5.70;99.90
1137;DHT22;557;48.466;7.950;2024-03-08T08:28:33;5.80;99.90
1137;DHT22;557;48.466;7.950;2024-03-08T08:31:00;5.90;99.90
1137;DHT22;557;48.466;7.950;2024-03-08T08:33:27;6.10;99.90
1137;DHT22;557;48.466;7.950;2024-03-08T08:35:55;6.20;99.90
1137;DHT22;557;48.466;7.950;2024-03-08T08:38:23;6.30;99.90
1137;DHT22;557;48.466;7.950;2024-03-08T08:40:50;6.40;99.90
1137;DHT22;557;48.466;7.950;2024-03-08T08:43:18;6.50;99.90
1137;DHT22;557;48.466;7.950;2024-03-08T08:45:46;6.60;99.90
1137;DHT22;557;48.466;7.950;2024-03-08T08:48:15;6.80;99.90
1137;DHT22;557;48.466;7.950;2024-03-08T08:50:42;6.90;99.90
1137;DHT22;557;48.466;7.950;2024-03-08T08:53:11;7.10;99.90
1137;DHT22;557;48.466;7.950;2024-03-08T08:55:40;7.20;99.90
1137;DHT22;557;48.466;7.950;2024-03-08T08:58:07;7.30;99.90
1137;DHT22;557;48.466;7.950;2024-03-08T09:00:34;7.40;99.90
1137;DHT22;557;48.466;7.950;2024-03-08T09:03:01;7.50;99.90
1137;DHT22;557;48.466;7.950;2024-03-08T09:05:28;7.60;99.90
1137;DHT22;557;48.466;7.950;2024-03-08T09:07:55;7.60;99.90
1137;DHT22;557;48.466;7.950;2024-03-08T09:10:27;7.70;99.90
1137;DHT22;557;48.466;7.950;2024-03-08T09:12:54;7.80;99.90
1137;DHT22;557;48.466;7.950;2024-03-08T09:15:21;7.90;99.90
1137;DHT22;557;48.466;7.950;2024-03-08T09:17:48;8.00;99.90
1137;DHT22;557;48.466;7.950;2024-03-08T09:20:15;8.00;99.90
1137;DHT22;557;48.466;7.950;2024-03-08T09:22:43;8.10;99.90
1137;DHT22;557;48.466;7.950;2024-03-08T09:25:11;8.30;99.90
1137;DHT22;557;48.466;7.950;2024-03-08T09:27:39;8.40;99.90
1137;DHT22;557;48.466;7.950;2024-03-08T09:30:07;8.50;99.90
1137;DHT22;557;48.466;7.950;2024-03-08T09:32:34;8.70;99.90
1137;DHT22;557;48.466;7.950;2024-03-08T09:35:02;8.80;99.90
1137;DHT22;557;48.466;7.950;2024-03-08T09:37:32;8.70;99.90
1137;DHT22;557;48.466;7.950;2024-03-08T09:39:59;8.80;99.90
1137;DHT22;557;48.466;7.950;2024-03-08T09:42:30;9.00;99.90
1137;DHT22;557;48.466;7.950;2024-03-08T09:44:59;9.10;99.90
1137;DHT22;557;48.466;7.950;2024-03-08T09:47:28;9.30;99.90
1137;DHT22;557;48.466;7.950;2024-03-08T09:49:59;9.50;99.90
1137;DHT22;557;48.466;7.950;2024-03-08T09:52:27;9.50;99.90
1137;DHT22;557;48.466;7.950;2024-03-08T09:54:56;9.70;99.90
1137;DHT22;557;48.466;7.950;2024-03-08T09:57:23;9.80;99.90
1137;DHT22;557;48.466;7.950;2024-03-08T09:59:51;10.00;99.90
1137;DHT22;557;48.466;7.950;2024-03-08T10:02:20;10.10;99.90
1137;DHT22;557;48.466;7.950;2024-03-08T10:04:46;10.40;99.90
1137;DHT22;557;48.466;7.950;2024-03-08T10:07:14;10.50;99.90
1137;DHT22;557;48.466;7.950;2024-03-08T10:09:41;10.50;99.90
1137;DHT22;557;48.466;7.950;2024-03-08T10:12:12;10.60;99.90
1137;DHT22;557;48.466;7.950;2024-03-08T10:14:41;10.70;99.90
1137;DHT22;557;48.466;7.950;2024-03-08T10:17:08;10.80;99.90
1137;DHT22;557;48.466;7.950;2024-03-08T10:19:37;11.00;99.90
1137;DHT22;557;48.466;7.950;2024-03-08T10:22:04;11.20;99.90
1137;DHT22;557;48.466;7.950;2024-03-08T10:24:32;11.30;99.90
1137;DHT22;557;48.466;7.950;2024-03-08T10:27:00;11.40;99.90
1137;DHT22;557;48.466;7.950;2024-03-08T10:29:30;11.60;99.90
1137;DHT22;557;48.466;7.950;2024-03-08T10:31:57;11.60;99.90
1137;DHT22;557;48.466;7.950;2024-03-08T10:34:25;11.80;99.90
1137;DHT22;557;48.466;7.950;2024-03-08T10:36:56;11.90;99.90
1137;DHT22;557;48.466;7.950;2024-03-08T10:39:28;12.00;99.90
1137;DHT22;557;48.466;7.950;2024-03-08T10:41:58;12.20;99.90
1137;DHT22;557;48.466;7.950;2024-03-08T10:44:49;12.20;99.90
1137;DHT22;557;48.466;7.950;2024-03-08T10:47:18;12.30;99.90
1137;DHT22;557;48.466;7.950;2024-03-08T10:49:51;12.40;99.90
1137;DHT22;557;48.466;7.950;2024-03-08T10:52:22;12.50;99.90
1137;DHT22;557;48.466;7.950;2024-03-08T10:54:49;12.70;99.90
1137;DHT22;557;48.466;7.950;2024-03-08T10:57:18;12.80;99.90
1137;DHT22;557;48.466;7.950;2024-03-08T10:59:47;12.50;99.90
1137;DHT22;557;48.466;7.950;2024-03-08T11:02:16;12.80;99.90
1137;DHT22;557;48.466;7.950;2024-03-08T11:04:47;13.10;99.90
1137;DHT22;557;48.466;7.950;2024-03-08T11:07:16;13.20;99.90
1137;DHT22;557;48.466;7.950;2024-03-08T11:09:47;13.00;99.90
1137;DHT22;557;48.466;7.950;2024-03-08T11:12:23;13.00;99.90
1137;DHT22;557;48.466;7.950;2024-03-08T11:14:52;13.50;99.90
1137;DHT22;557;48.466;7.950;2024-03-08T11:17:40;13.70;99.90
1137;DHT22;557;48.466;7.950;2024-03-08T11:20:10;13.80;99.90
1137;DHT22;557;48.466;7.950;2024-03-08T11:22:41;13.80;99.90
1137;DHT22;557;48.466;7.950;2024-03-08T11:25:31;13.90;99.90
1137;DHT22;557;48.466;7.950;2024-03-08T11:28:15;14.00;99.90
1137;DHT22;557;48.466;7.950;2024-03-08T11:30:47;13.80;99.90
1137;DHT22;557;48.466;7.950;2024-03-08T11:33:15;14.00;99.90
1137;DHT22;557;48.466;7.950;2024-03-08T11:35:43;14.30;99.90
1137;DHT22;557;48.466;7.950;2024-03-08T11:38:12;14.40;99.90
1137;DHT22;557;48.466;7.950;2024-03-08T11:40:41;14.40;99.90
1137;DHT22;557;48.466;7.950;2024-03-08T11:43:08;14.70;99.90
1137;DHT22;557;48.466;7.950;2024-03-08T11:45:36;14.80;99.90
1137;DHT22;557;48.466;7.950;2024-03-08T11:48:04;14.80;99.90
1137;DHT22;557;48.466;7.950;2024-03-08T11:50:31;15.10;99.90
1137;DHT22;557;48.466;7.950;2024-03-08T11:53:02;15.10;99.90
1137;DHT22;557;48.466;7.950;2024-03-08T11:55:30;15.10;99.90
1137;DHT22;557;48.466;7.950;2024-03-08T11:58:03;15.20;99.90
1137;DHT22;557;48.466;7.950;2024-03-08T12:00:31;14.90;99.90
1137;DHT22;557;48.466;7.950;2024-03-08T12:03:04;15.00;99.90
1137;DHT22;557;48.466;7.950;2024-03-08T12:05:31;15.20;99.90
1137;DHT22;557;48.466;7.950;2024-03-08T12:07:59;15.60;99.90
1137;DHT22;557;48.466;7.950;2024-03-08T12:10:27;15.50;99.90
1137;DHT22;557;48.466;7.950;2024-03-08T12:12:55;15.40;99.90
1137;DHT22;557;48.466;7.950;2024-03-08T12:15:26;15.40;99.90
1137;DHT22;557;48.466;7.950;2024-03-08T12:17:55;15.30;99.90
1137;DHT22;557;48.466;7.950;2024-03-08T12:20:24;15.50;99.90
1137;DHT22;557;48.466;7.950;2024-03-08T12:22:52;15.30;99.90
1137;DHT22;557;48.466;7.950;2024-03-08T12:25:22;15.20;99.90
1137;DHT22;557;48.466;7.950;2024-03-08T12:27:49;15.30;99.90
1137;DHT22;557;48.466;7.950;2024-03-08T12:30:19;15.50;99.90
1137;DHT22;557;48.466;7.950;2024-03-08T12:32:56;15.60;99.90
1137;DHT22;557;48.466;7.950;2024-03-08T12:35:25;15.50;99.90
1137;DHT22;557;48.466;7.950;2024-03-08T12:37:54;15.70;99.90
1137;DHT22;557;48.466;7.950;2024-03-08T12:40:26;15.90;99.90
1137;DHT22;557;48.466;7.950;2024-03-08T12:42:54;15.90;99.90
1137;DHT22;557;48.466;7.950;2024-03-08T12:45:21;16.20;99.90
1137;DHT22;557;48.466;7.950;2024-03-08T12:47:50;16.40;99.90
1137;DHT22;557;48.466;7.950;2024-03-08T12:50:18;16.60;99.90
1137;DHT22;557;48.466;7.950;2024-03-08T12:52:45;17.30;99.90
1137;DHT22;557;48.466;7.950;2024-03-08T12:55:12;17.30;99.90
1137;DHT22;557;48.466;7.950;2024-03-08T12:57:39;18.00;99.90
1137;DHT22;557;48.466;7.950;2024-03-08T13:00:07;18.00;99.90
1137;DHT22;557;48.466;7.950;2024-03-08T13:02:39;18.30;99.90
1137;DHT22;557;48.466;7.950;2024-03-08T13:05:06;18.60;99.90
1137;DHT22;557;48.466;7.950;2024-03-08T13:07:37;19.20;99.90
1137;DHT22;557;48.466;7.950;2024-03-08T13:10:05;19.40;99.90
1137;DHT22;557;48.466;7.950;2024-03-08T13:12:32;19.90;99.90
1137;DHT22;557;48.466;7.950;2024-03-08T13:15:01;20.00;99.90
1137;DHT22;557;48.466;7.950;2024-03-08T13:17:30;20.20;99.90
1137;DHT22;557;48.466;7.950;2024-03-08T13:19:57;20.10;99.90
1137;DHT22;557;48.466;7.950;2024-03-08T13:22:25;20.20;99.90
1137;DHT22;557;48.466;7.950;2024-03-08T13:24:54;20.10;99.90
1137;DHT22;557;48.466;7.950;2024-03-08T13:27:21;20.50;99.90
1137;DHT22;557;48.466;7.950;2024-03-08T13:29:50;20.50;99.90
1137;DHT22;557;48.466;7.950;2024-03-08T13:32:17;20.30;99.90
1137;DHT22;557;48.466;7.950;2024-03-08T13:34:46;20.60;99.90
1137;DHT22;557;48.466;7.950;2024-03-08T13:37:16;20.40;99.90
1137;DHT22;557;48.466;7.950;2024-03-08T13:39:43;20.00;99.90
1137;DHT22;557;48.466;7.950;2024-03-08T13:42:12;20.10;99.90
1137;DHT22;557;48.466;7.950;2024-03-08T13:44:44;20.10;99.90
1137;DHT22;557;48.466;7.950;2024-03-08T13:47:12;20.00;99.90
1137;DHT22;557;48.466;7.950;2024-03-08T13:49:39;20.20;99.90
1137;DHT22;557;48.466;7.950;2024-03-08T13:52:06;20.20;99.90
1137;DHT22;557;48.466;7.950;2024-03-08T13:54:34;20.00;99.00
1137;DHT22;557;48.466;7.950;2024-03-08T13:57:01;20.10;98.70
1137;DHT22;557;48.466;7.950;2024-03-08T13:59:30;20.10;97.80
1137;DHT22;557;48.466;7.950;2024-03-08T14:01:59;20.20;96.40
1137;DHT22;557;48.466;7.950;2024-03-08T14:04:27;20.10;95.30
1137;DHT22;557;48.466;7.950;2024-03-08T14:06:54;20.00;93.10
1137;DHT22;557;48.466;7.950;2024-03-08T14:09:24;19.60;90.90
1137;DHT22;557;48.466;7.950;2024-03-08T14:11:52;19.50;91.30
1137;DHT22;557;48.466;7.950;2024-03-08T14:14:20;19.70;92.90
1137;DHT22;557;48.466;7.950;2024-03-08T14:16:50;19.80;91.30
1137;DHT22;557;48.466;7.950;2024-03-08T14:19:19;19.60;87.00
1137;DHT22;557;48.466;7.950;2024-03-08T14:21:46;19.30;86.70
1137;DHT22;557;48.466;7.950;2024-03-08T14:24:14;19.30;83.90
1137;DHT22;557;48.466;7.950;2024-03-08T14:26:41;19.40;94.40
1137;DHT22;557;48.466;7.950;2024-03-08T14:29:07;19.50;84.60
1137;DHT22;557;48.466;7.950;2024-03-08T14:31:35;19.70;84.50
1137;DHT22;557;48.466;7.950;2024-03-08T14:34:03;19.60;81.40
1137;DHT22;557;48.466;7.950;2024-03-08T14:36:30;19.70;80.50
1137;DHT22;557;48.466;7.950;2024-03-08T14:38:57;19.60;75.80
1137;DHT22;557;48.466;7.950;2024-03-08T14:41:24;19.20;71.90
1137;DHT22;557;48.466;7.950;2024-03-08T14:43:52;19.10;70.70
1137;DHT22;557;48.466;7.950;2024-03-08T14:46:19;18.80;66.90
1137;DHT22;557;48.466;7.950;2024-03-08T14:48:49;18.90;70.80
1137;DHT22;557;48.466;7.950;2024-03-08T14:51:18;19.00;71.00
1137;DHT22;557;48.466;7.950;2024-03-08T14:53:47;19.10;71.30
1137;DHT22;557;48.466;7.950;2024-03-08T14:56:15;19.30;69.20
1137;DHT22;557;48.466;7.950;2024-03-08T14:58:43;19.60;70.70
1137;DHT22;557;48.466;7.950;2024-03-08T15:01:10;19.60;66.80
1137;DHT22;557;48.466;7.950;2024-03-08T15:03:39;19.70;66.60
1137;DHT22;557;48.466;7.950;2024-03-08T15:06:06;19.80;65.50
1137;DHT22;557;48.466;7.950;2024-03-08T15:08:37;19.90;64.70
1137;DHT22;557;48.466;7.950;2024-03-08T15:11:05;19.90;61.50
1137;DHT22;557;48.466;7.950;2024-03-08T15:13:32;20.00;62.00
1137;DHT22;557;48.466;7.950;2024-03-08T15:16:07;19.90;58.70
1137;DHT22;557;48.466;7.950;2024-03-08T15:18:35;19.90;58.40
1137;DHT22;557;48.466;7.950;2024-03-08T15:21:06;20.00;57.20
1137;DHT22;557;48.466;7.950;2024-03-08T15:23:34;19.60;54.50
1137;DHT22;557;48.466;7.950;2024-03-08T15:26:03;19.30;52.20
1137;DHT22;557;48.466;7.950;2024-03-08T15:28:32;18.90;50.30
1137;DHT22;557;48.466;7.950;2024-03-08T15:31:03;18.30;47.30
1137;DHT22;557;48.466;7.950;2024-03-08T15:33:38;17.80;45.30
1137;DHT22;557;48.466;7.950;2024-03-08T15:36:10;17.40;44.40
1137;DHT22;557;48.466;7.950;2024-03-08T15:38:40;17.30;45.30
1137;DHT22;557;48.466;7.950;2024-03-08T15:41:08;16.90;43.50
1137;DHT22;557;48.466;7.950;2024-03-08T15:43:36;16.50;42.80
1137;DHT22;557;48.466;7.950;2024-03-08T15:46:03;15.90;41.20
1137;DHT22;557;48.466;7.950;2024-03-08T15:48:31;15.30;40.40
1137;DHT22;557;48.466;7.950;2024-03-08T15:50:58;14.70;39.80
1137;DHT22;557;48.466;7.950;2024-03-08T15:53:28;14.10;41.10
1137;DHT22;557;48.466;7.950;2024-03-08T15:55:56;13.60;44.30
1137;DHT22;557;48.466;7.950;2024-03-08T15:58:25;13.20;46.30
1137;DHT22;557;48.466;7.950;2024-03-08T16:00:52;12.80;51.90
1137;DHT22;557;48.466;7.950;2024-03-08T16:03:21;12.50;62.90
1137;DHT22;557;48.466;7.950;2024-03-08T16:05:49;12.20;81.90
1137;DHT22;557;48.466;7.950;2024-03-08T16:08:16;11.90;99.90
1137;DHT22;557;48.466;7.950;2024-03-08T16:10:46;11.70;99.90
1137;DHT22;557;48.466;7.950;2024-03-08T16:13:14;11.50;99.90
1137;DHT22;557;48.466;7.950;2024-03-08T16:15:44;11.40;99.90
1137;DHT22;557;48.466;7.950;2024-03-08T16:18:11;11.20;99.90
1137;DHT22;557;48.466;7.950;2024-03-08T16:20:38;11.10;99.90
1137;DHT22;557;48.466;7.950;2024-03-08T16:23:05;11.00;99.90
1137;DHT22;557;48.466;7.950;2024-03-08T16:25:33;11.00;99.90
1137;DHT22;557;48.466;7.950;2024-03-08T16:28:00;10.90;99.90
1137;DHT22;557;48.466;7.950;2024-03-08T16:30:26;10.90;99.90
1137;DHT22;557;48.466;7.950;2024-03-08T16:32:59;11.00;99.90